Data for 04/30/2017

Time Sea-Level Adjusted Pressure Absolute Pressure Temperature Relative Humidity Dew Point   
(mb) (inHg) (mb) (inHg) (C) (F) (%) (C) (F)
00:05 1019 30.09 848 25.04 3.4 38.1 56 -4.6 23.7
00:10 1019 30.09 848 25.04 3.4 38 57 -4.4 24
00:15 1019 30.09 848 25.04 3 37.5 59 -4.2 24.4
00:20 1019 30.09 848 25.04 2.7 36.9 60 -4.3 24.2
00:25 1019 30.09 848 25.04 2.6 36.6 61 -4.2 24.5
00:30 1019 30.09 848 25.04 2.4 36.3 61 -4.3 24.3
00:35 1019 30.09 848 25.04 2.4 36.3 60 -4.5 23.9
00:40 1019 30.09 848 25.04 2.4 36.4 61 -4.4 24.2
00:45 1019 30.09 848 25.04 2.3 36.2 61 -4.4 24.2
00:50 1019 30.09 848 25.04 2.4 36.3 61 -4.4 24.2
00:55 1019 30.09 848 25.04 2.3 36.2 61 -4.4 24.1
01:00 1019 30.09 848 25.04 2.3 36.1 60 -4.6 23.7
01:05 1019 30.09 848 25.04 2.4 36.3 61 -4.4 24.1
01:10 1019 30.09 848 25.04 2.3 36.1 61 -4.5 23.9
01:15 1019 30.09 848 25.04 2.2 36 62 -4.3 24.3
01:20 1019 30.09 848 25.04 1.9 35.5 61 -4.7 23.5
01:25 1019 30.09 848 25.04 2.1 35.7 62 -4.5 23.8
01:30 1019 30.09 848 25.04 2.1 35.7 60 -5 23.1
01:35 1019 30.09 848 25.04 2.4 36.2 59 -4.9 23.1
01:40 1019 30.09 848 25.04 2.6 36.6 57 -5.1 22.8
01:45 1019 30.09 848 25.04 2.8 37 56 -5.2 22.6
01:50 1019 30.09 848 25.04 2.9 37.2 56 -5 23
01:55 1019 30.09 848 25.04 3 37.3 57 -4.6 23.6
02:00 1019 30.09 848 25.04 2.6 36.6 61 -4.2 24.4
02:05 1019 30.09 848 25.04 2.5 36.5 60 -4.5 24
02:10 1019 30.09 848 25.04 2.5 36.5 62 -4.1 24.6
02:15 1019 30.09 848 25.04 2 35.6 64 -4.2 24.5
02:20 1019 30.09 848 25.04 1.7 35.1 64 -4.4 24
02:25 1019 30.09 848 25.04 1.6 35 64 -4.5 23.9
02:30 1019 30.09 848 25.04 1.7 35.1 65 -4.2 24.5
02:35 1019 30.09 848 25.04 1.6 35 65 -4.2 24.4
02:40 1019 30.09 848 25.04 1.7 35 64 -4.4 24
02:45 1019 30.09 848 25.04 2.1 35.7 60 -4.9 23.1
02:50 1019 30.09 848 25.04 2.3 36.2 58 -5.2 22.7
02:55 1019 30.09 848 25.04 2.4 36.3 61 -4.4 24
03:00 1019 30.09 848 25.04 2.2 35.9 64 -4 24.8
03:05 1019 30.09 848 25.04 2 35.6 64 -4 24.8
03:10 1019 30.09 848 25.04 1.9 35.5 65 -3.9 24.9
03:15 1019 30.09 848 25.04 1.8 35.2 65 -4 24.8
03:20 1019 30.09 848 25.04 1.9 35.4 64 -4.1 24.6
03:25 1019 30.09 848 25.04 2.1 35.7 65 -3.8 25.2
03:30 1019 30.09 848 25.04 2.5 36.5 62 -4.1 24.6
03:35 1019 30.09 848 25.04 2.5 36.5 61 -4.2 24.4
03:40 1019 30.09 848 25.04 2.3 36.2 59 -4.8 23.4
03:45 1019 30.09 848 25.04 2.5 36.5 60 -4.5 24
03:50 1019 30.09 848 25.04 2.5 36.5 60 -4.5 24
03:55 1019 30.09 848 25.04 2.4 36.4 64 -3.7 25.3
04:00 1019 30.09 848 25.04 1.9 35.4 66 -3.7 25.3
04:05 1019 30.09 848 25.04 1.6 34.8 67 -3.9 24.9
04:10 1019 30.09 848 25.04 1.8 35.2 66 -3.9 24.9
04:15 1019 30.09 848 25.04 2 35.6 65 -3.9 25.1
04:20 1019 30.09 848 25.04 2.1 35.8 65 -3.8 25.1
04:25 1019 30.09 848 25.04 2.2 36 62 -4.4 24.1
04:30 1019 30.09 848 25.04 2.6 36.7 60 -4.3 24.3
04:35 1019 30.09 848 25.04 2.8 37 59 -4.5 24
04:40 1019 30.09 848 25.04 3.1 37.6 59 -4.2 24.5
04:45 1019 30.09 848 25.04 3.3 38 56 -4.7 23.6
04:50 1019 30.09 848 25.04 3.5 38.2 55 -4.6 23.7
04:55 1019 30.09 848 25.04 3.7 38.6 56 -4.2 24.4
05:00 1019 30.09 848 25.04 3.7 38.6 59 -3.5 25.7
05:05 1019 30.09 848 25.04 3.4 38.2 61 -3.3 26
05:10 1019 30.09 848 25.04 3.3 37.9 63 -3 26.5
05:15 1019 30.09 848 25.04 3.1 37.5 67 -2.4 27.7
05:20 1019 30.09 848 25.04 3 37.4 65 -3 26.6
05:25 1019 30.09 848 25.04 3.2 37.8 62 -3.3 26
05:30 1019 30.09 848 25.04 3.6 38.4 61 -3.3 26.1
05:35 1019 30.09 848 25.04 3.6 38.5 62 -3.1 26.5
05:40 1019 30.09 848 25.04 3.6 38.4 64 -2.5 27.5
05:45 1019 30.09 848 25.04 3.1 37.6 66 -2.7 27.2
05:50 1019 30.09 848 25.04 3.2 37.8 63 -3.2 26.2
05:55 1019 30.09 848 25.04 3.9 39 57 -3.8 25.2
06:00 1019 30.09 848 25.04 4.4 39.8 58 -3.3 26.1
06:05 1019 30.09 848 25.04 4.1 39.4 60 -3 26.5
06:10 1019 30.09 848 25.04 3.9 39 62 -2.8 27
06:15 1019 30.09 848 25.04 3.9 39 61 -3 26.6
06:20 1019 30.09 848 25.04 4 39.1 60 -3.1 26.4
06:25 1019 30.09 848 25.04 4.2 39.6 59 -3.1 26.5
06:30 1019 30.09 848 25.04 4.3 39.7 58 -3.2 26.2
06:35 1019 30.09 848 25.04 4.5 40.1 59 -2.7 27.1
06:40 1019 30.09 848 25.04 4.9 40.8 59 -2.5 27.5
06:45 1019 30.09 848 25.04 5.1 41.2 60 -2.1 28.3
06:50 1018 30.06 848 25.04 5.2 41.3 60 -2 28.4
06:55 1018 30.06 848 25.04 5.2 41.3 60 -1.8 28.7
07:00 1018 30.06 848 25.04 5.3 41.5 60 -1.9 28.6
07:05 1018 30.06 848 25.04 5.4 41.7 59 -2 28.4
07:10 1018 30.06 848 25.04 5.5 41.8 58 -2.1 28.1
07:15 1018 30.06 847 25.01 5.5 41.9 58 -2.1 28.2
07:20 1018 30.06 848 25.04 5.7 42.2 58 -2 28.5
07:25 1018 30.06 848 25.04 5.9 42.7 59 -1.6 29.2
07:30 1018 30.06 848 25.04 6.2 43.2 57 -1.5 29.3
07:35 1018 30.06 848 25.04 6.2 43.2 56 -1.8 28.8
07:40 1018 30.06 847 25.01 6.2 43.1 55 -2.1 28.2
07:45 1018 30.06 847 25.01 6.5 43.6 55 -1.8 28.7
07:50 1018 30.06 847 25.01 6.7 44.1 55 -1.7 29
07:55 1018 30.06 847 25.01 7.2 44.9 52 -2.1 28.1
08:00 1018 30.06 847 25.01 7.8 46.1 48 -2.5 27.5
08:05 1018 30.06 847 25.01 8.2 46.7 48 -2.1 28.2
08:10 1018 30.06 847 25.01 8.2 46.7 48 -2.2 28.1
08:15 1018 30.06 847 25.01 8.1 46.6 46 -2.9 26.8
08:20 1018 30.06 847 25.01 8.3 47 44 -3.3 26.1
08:25 1018 30.06 847 25.01 8.4 47 47 -2.3 27.9
08:30 1018 30.06 847 25.01 8.3 46.9 45 -2.9 26.9
08:35 1018 30.06 847 25.01 8.5 47.3 46 -2.3 27.8
08:40 1018 30.06 847 25.01 8.8 47.8 44 -2.7 27.2
08:45 1018 30.06 847 25.01 9.1 48.3 42 -3.2 26.2
08:50 1018 30.06 847 25.01 9.1 48.3 43 -2.9 26.7
08:55 1018 30.06 847 25.01 8.7 47.7 44 -2.9 26.7
09:00 1018 30.06 847 25.01 8.5 47.3 45 -2.8 26.9
09:05 1018 30.06 847 25.01 8.7 47.6 44 -3 26.6
09:10 1018 30.06 847 25.01 9 48.3 42 -3.1 26.4
09:15 1018 30.06 847 25.01 9 48.2 42 -3.1 26.4
09:20 1018 30.06 847 25.01 8.9 48.1 42 -3.1 26.4
09:25 1018 30.06 847 25.01 9.1 48.4 42 -3 26.5
09:30 1018 30.06 847 25.01 9.6 49.2 41 -3.2 26.3
09:35 1018 30.06 847 25.01 9.7 49.4 39 -3.4 25.8
09:40 1018 30.06 847 25.01 10.4 50.7 40 -2.6 27.3
09:45 1018 30.06 847 25.01 10 49.9 36 -4.3 24.3
09:50 1018 30.06 847 25.01 9.8 49.7 37 -4.3 24.2
09:55 1018 30.06 848 25.04 9.7 49.4 39 -3.7 25.4
10:00 1018 30.06 847 25.01 9.7 49.5 39 -3.5 25.7
10:05 1018 30.06 848 25.04 10.1 50.2 37 -3.9 24.9
10:10 1018 30.06 848 25.04 9.9 49.8 38 -3.8 25.1
10:15 1018 30.06 848 25.04 9.7 49.4 38 -3.9 25
10:20 1019 30.09 848 25.04 9.5 49.1 39 -3.7 25.3
10:25 1019 30.09 848 25.04 9.4 49 41 -3 26.5
10:30 1019 30.09 848 25.04 9.4 49 44 -2.2 28
10:35 1019 30.09 848 25.04 9.2 48.5 45 -2 28.3
10:40 1019 30.09 848 25.04 9 48.1 46 -2 28.5
10:45 1019 30.09 848 25.04 8.8 47.9 46 -2.1 28.3
10:50 1019 30.09 848 25.04 8.8 47.8 46 -2 28.4
10:55 1019 30.09 848 25.04 9.1 48.4 45 -2.1 28.2
11:00 1019 30.09 848 25.04 9.1 48.3 47 -1.6 29.1
11:05 1019 30.09 848 25.04 8.8 47.8 48 -1.6 29
11:10 1019 30.09 848 25.04 9.1 48.3 46 -1.9 28.6
11:15 1018 30.06 848 25.04 8.9 48 52 -0.4 31.3
11:20 1018 30.06 847 25.01 8.1 46.6 52 -1 30.1
11:25 1018 30.06 847 25.01 8.2 46.8 53 -0.8 30.6
11:30 1018 30.06 847 25.01 8.3 46.9 50 -1.6 29.2
11:35 1018 30.06 847 25.01 8.6 47.5 47 -2 28.3
11:40 1018 30.06 847 25.01 9 48.2 45 -2.2 28.1
11:45 1017 30.03 847 25.01 9.4 48.9 44 -2.3 27.9
11:50 1017 30.03 846 24.98 9.6 49.3 46 -1.4 29.4
11:55 1017 30.03 846 24.98 9.5 49.2 49 -0.7 30.8
12:00 1017 30.03 846 24.98 9.3 48.7 48 -1 30.2
12:05 1017 30.03 846 24.98 9.7 49.4 50 -0.1 31.7
12:10 1017 30.03 846 24.98 10.3 50.5 49 0.2 32.3
12:15 1017 30.03 846 24.98 10.3 50.5 48 -0.1 31.8
12:20 1017 30.03 846 24.98 10.1 50.2 47 -0.7 30.7
12:25 1017 30.03 846 24.98 10.9 51.6 44 -0.9 30.4
12:30 1017 30.03 846 24.98 11.5 52.8 42 -0.9 30.3
12:35 1017 30.03 846 24.98 12.5 54.4 39 -1.1 30
12:40 1017 30.03 846 24.98 13.1 55.6 35 -2 28.4
12:45 1017 30.03 846 24.98 12.5 54.5 38 -1.4 29.4
12:50 1017 30.03 846 24.98 12.8 55 36 -1.7 29
12:55 1017 30.03 846 24.98 12.3 54.2 39 -1.2 29.8
13:00 1016 30 846 24.98 11.7 53.1 39 -1.7 28.9
13:05 1016 30 846 24.98 11.7 53.1 38 -2.1 28.2
13:10 1016 30 846 24.98 12.5 54.6 36 -2.1 28.2
13:15 1016 30 846 24.98 12.2 53.9 38 -1.6 29.2
13:20 1016 30 845 24.95 11.6 52.9 42 -0.8 30.6
13:25 1016 30 845 24.95 11.2 52.2 41 -1.4 29.4
13:30 1016 30 845 24.95 11.6 52.9 39 -2 28.5
13:35 1016 30 845 24.95 11.9 53.4 38 -1.8 28.7
13:40 1016 30 845 24.95 11.5 52.6 40 -1.5 29.3
13:45 1016 30 845 24.95 11.1 52 42 -1.3 29.6
13:50 1016 30 845 24.95 10.9 51.6 42 -1.4 29.5
13:55 1016 30 845 24.95 10.9 51.7 40 -2.2 28.1
14:00 1016 30 845 24.95 11.2 52.2 39 -2.2 28
14:05 1016 30 845 24.95 11.5 52.8 37 -2.5 27.5
14:10 1016 30 845 24.95 11.6 52.9 38 -2.3 27.8
14:15 1016 30 845 24.95 11.7 53 38 -2.1 28.3
14:20 1016 30 845 24.95 11.8 53.2 39 -1.7 28.9
14:25 1016 30 845 24.95 11.6 52.9 40 -1.6 29
14:30 1016 30 845 24.95 11.5 52.7 40 -1.5 29.4
14:35 1015 29.97 845 24.95 11.5 52.7 40 -1.6 29.1
14:40 1015 29.97 845 24.95 11.5 52.7 39 -1.9 28.6
14:45 1015 29.97 845 24.95 11.8 53.3 38 -2.1 28.2
14:50 1015 29.97 845 24.95 11.3 52.4 43 -0.7 30.8
14:55 1015 29.97 845 24.95 10.6 51 43 -1.4 29.6
15:00 1016 30 845 24.95 10.4 50.8 46 -0.7 30.7
15:05 1015 29.97 845 24.95 10.2 50.3 48 -0.4 31.3
15:10 1015 29.97 844 24.92 10.1 50.2 51 0.4 32.6
15:15 1015 29.97 844 24.92 10.1 50.1 51 0.3 32.5
15:20 1015 29.97 844 24.92 10.2 50.3 50 0.2 32.3
15:25 1015 29.97 844 24.92 10.6 51.2 49 0.5 32.9
15:30 1015 29.97 844 24.92 10.7 51.2 48 0.1 32.1
15:35 1015 29.97 844 24.92 10.7 51.2 45 -0.6 31
15:40 1015 29.97 844 24.92 11.3 52.3 43 -0.7 30.8
15:45 1015 29.97 844 24.92 11.4 52.5 42 -1 30.1
15:50 1015 29.97 845 24.95 11.3 52.3 44 -0.5 31.1
15:55 1015 29.97 844 24.92 11.1 52 46 -0.1 31.9
16:00 1015 29.97 844 24.92 11.1 51.9 45 -0.5 31.1
16:05 1015 29.97 844 24.92 11.1 52 43 -0.8 30.5
16:10 1015 29.97 844 24.92 11.3 52.3 42 -1 30.1
16:15 1015 29.97 844 24.92 11.6 52.8 41 -1.2 29.8
16:20 1015 29.97 844 24.92 12.1 53.8 38 -1.7 29
16:25 1015 29.97 844 24.92 12.7 54.8 38 -1.1 30.1
16:30 1015 29.97 844 24.92 12.6 54.6 38 -1.1 30
16:35 1015 29.97 844 24.92 12.4 54.4 39 -1.3 29.7
16:40 1015 29.97 844 24.92 12.4 54.4 37 -1.7 28.9
16:45 1015 29.97 844 24.92 12.4 54.4 38 -1.5 29.2
16:50 1015 29.97 844 24.92 12.4 54.4 37 -1.8 28.7
16:55 1015 29.97 844 24.92 12.3 54.2 37 -1.8 28.8
17:00 1015 29.97 845 24.95 12.1 53.8 44 0.3 32.5
17:05 1015 29.97 845 24.95 11 51.9 49 0.9 33.6
17:10 1015 29.97 845 24.95 10.3 50.6 52 0.9 33.7
17:15 1015 29.97 845 24.95 10.3 50.6 51 0.8 33.4
17:20 1015 29.97 845 24.95 10.6 51 50 0.7 33.3
17:25 1015 29.97 845 24.95 10.9 51.6 46 -0.2 31.7
17:30 1015 29.97 845 24.95 11.2 52.2 48 0.7 33.3
17:35 1015 29.97 845 24.95 11.5 52.7 47 0.7 33.3
17:40 1015 29.97 845 24.95 11.5 52.7 47 0.7 33.3
17:45 1016 30 845 24.95 11.5 52.7 47 0.5 32.9
17:50 1016 30 845 24.95 11.5 52.6 48 0.8 33.4
17:55 1016 30 845 24.95 11.5 52.6 46 0.2 32.4
18:00 1016 30 845 24.95 11.4 52.6 47 0.4 32.8
18:05 1016 30 845 24.95 11.4 52.5 47 0.4 32.8
18:10 1015 29.97 845 24.95 11.3 52.4 46 0.2 32.3
18:15 1015 29.97 845 24.95 11.3 52.4 45 -0 32
18:20 1016 30 845 24.95 11.3 52.3 45 -0.2 31.6
18:25 1016 30 845 24.95 11.2 52.2 44 -0.7 30.8
18:30 1016 30 845 24.95 11.2 52.1 42 -1.3 29.7
18:35 1016 30 845 24.95 11 51.8 43 -1.1 30
18:40 1016 30 845 24.95 10.5 50.8 46 -0.7 30.7
18:45 1016 30 845 24.95 10.1 50.1 48 -0.4 31.2
18:50 1016 30 845 24.95 9.9 49.7 48 -0.6 30.9
18:55 1016 30 845 24.95 9.7 49.4 48 -0.8 30.6
19:00 1016 30 845 24.95 9.6 49.3 47 -1.1 30.1
19:05 1016 30 845 24.95 9.6 49.4 47 -1.1 30
19:10 1016 30 845 24.95 9.6 49.2 48 -0.9 30.5
19:15 1016 30 845 24.95 9.5 49 48 -0.8 30.5
19:20 1016 30 845 24.95 9.4 48.8 50 -0.5 31.2
19:25 1016 30 845 24.95 9.2 48.6 51 -0.4 31.2
19:30 1016 30 845 24.95 9.2 48.6 50 -0.6 31
19:35 1016 30 845 24.95 9.4 48.8 49 -0.7 30.7
19:40 1016 30 845 24.95 9.5 49.1 46 -1.4 29.5
19:45 1016 30 845 24.95 9.8 49.6 45 -1.6 29.1
19:50 1016 30 845 24.95 9.8 49.7 46 -1.3 29.6
19:55 1016 30 845 24.95 9.7 49.4 46 -1.3 29.6
20:00 1016 30 845 24.95 9.6 49.3 46 -1.4 29.5
20:05 1016 30 845 24.95 9.6 49.2 45 -1.8 28.8
20:10 1016 30 845 24.95 9.6 49.3 44 -1.9 28.6
20:15 1016 30 845 24.95 9.5 49.2 44 -2 28.5
20:20 1016 30 845 24.95 9.5 49.2 43 -2.5 27.5
20:25 1016 30 845 24.95 9.5 49.1 43 -2.5 27.6
20:30 1016 30 846 24.98 9.5 49 41 -3 26.5
20:35 1016 30 846 24.98 9.6 49.3 41 -3 26.6
20:40 1017 30.03 846 24.98 9.5 49.1 43 -2.5 27.6
20:45 1017 30.03 846 24.98 9.2 48.6 44 -2.3 27.9
20:50 1017 30.03 846 24.98 9 48.2 45 -2.4 27.8
20:55 1017 30.03 846 24.98 8.8 47.8 45 -2.4 27.7
21:00 1017 30.03 846 24.98 8.7 47.6 46 -2.1 28.2
21:05 1017 30.03 846 24.98 8.5 47.4 47 -2.2 28
21:10 1017 30.03 846 24.98 8.4 47.1 48 -2 28.4
21:15 1017 30.03 846 24.98 8.3 46.9 48 -2.2 28.1
21:20 1017 30.03 846 24.98 8.2 46.7 48 -2.1 28.2
21:25 1017 30.03 846 24.98 8.1 46.5 48 -2.2 28.1
21:30 1017 30.03 846 24.98 7.9 46.3 48 -2.2 28
21:35 1017 30.03 847 25.01 7.8 46.1 48 -2.4 27.8
21:40 1017 30.03 847 25.01 7.7 45.8 49 -2.3 27.8
21:45 1018 30.06 847 25.01 7.5 45.5 50 -2.2 28
21:50 1018 30.06 847 25.01 7.3 45.1 51 -2.2 28
21:55 1018 30.06 847 25.01 7.1 44.8 52 -2.2 28.1
22:00 1018 30.06 847 25.01 6.9 44.4 53 -2.1 28.3
22:05 1018 30.06 847 25.01 6.7 44.1 53 -2.1 28.1
22:10 1018 30.06 847 25.01 6.6 43.9 54 -2.2 28.1
22:15 1018 30.06 847 25.01 6.5 43.7 54 -2.2 28
22:20 1018 30.06 847 25.01 6.4 43.4 54 -2.2 28
22:25 1018 30.06 847 25.01 6.2 43.2 54 -2.4 27.6
22:30 1018 30.06 847 25.01 6.3 43.3 53 -2.6 27.3
22:35 1018 30.06 847 25.01 6.3 43.3 53 -2.5 27.5
22:40 1018 30.06 847 25.01 6.3 43.3 53 -2.7 27.2
22:45 1018 30.06 847 25.01 6.3 43.3 52 -2.8 26.9
22:50 1018 30.06 847 25.01 6.3 43.3 52 -2.8 27
22:55 1018 30.06 847 25.01 6.2 43.1 53 -2.8 27
23:00 1018 30.06 847 25.01 6.1 43 53 -2.7 27.2
23:05 1018 30.06 847 25.01 6.1 42.9 53 -2.9 26.8
23:10 1018 30.06 847 25.01 6.1 43 51 -3.1 26.4
23:15 1018 30.06 847 25.01 6.2 43.2 50 -3.3 26.1
23:20 1018 30.06 848 25.04 6.3 43.4 51 -3 26.6
23:25 1018 30.06 848 25.04 6.2 43.2 51 -3 26.5
23:30 1018 30.06 848 25.04 6.2 43.2 52 -3 26.6
23:35 1018 30.06 848 25.04 6.2 43.1 52 -3.1 26.5
23:40 1019 30.09 848 25.04 6.1 43 52 -3.1 26.5
23:45 1019 30.09 848 25.04 6 42.9 51 -3.4 25.9
23:50 1019 30.09 848 25.04 6.1 42.9 50 -3.5 25.7
23:55 1019 30.09 848 25.04 6.1 42.9 50 -3.6 25.5
24:00 1019 30.09 848 25.04 6.1 43 50 -3.6 25.5